Time;durP1;ratioP1;P1;durP2;ratioP2;P2;SDS_P1;SDS_P2;PMS_P1;PMS_P2;Temp;Humidity;BMP_temperature;BMP_pressure;BME280_temperature;BME280_humidity;BME280_pressure;Samples;Min_cycle;Max_cycle;Signal;HPM_P1;HPM_P2
2021/11/04 00:00:36;;;;;;;6.82;5.90;;;;;;;8.20;89.20;97875.19;5071041;28;20280;-73
2021/11/04 00:03:03;;;;;;;6.45;5.85;;;;;;;7.87;93.05;97878.59;5064541;28;20191;-74
2021/11/04 00:05:30;;;;;;;7.82;6.47;;;;;;;7.94;93.41;97872.66;5070839;28;20282;-73
2021/11/04 00:07:59;;;;;;;7.05;5.90;;;;;;;8.03;93.08;97879.16;5072289;28;20200;-73
2021/11/04 00:10:26;;;;;;;6.32;5.72;;;;;;;8.25;91.92;97880.19;5058461;28;20801;-73
2021/11/04 00:12:54;;;;;;;7.15;6.28;;;;;;;8.01;92.12;97890.97;5071756;28;20203;-73
2021/11/04 00:15:21;;;;;;;7.20;6.22;;;;;;;7.92;93.11;97890.66;5064140;28;20239;-72
2021/11/04 00:17:48;;;;;;;8.88;6.20;;;;;;;7.69;95.90;97892.38;5070606;28;20187;-74
2021/11/04 00:20:17;;;;;;;6.63;6.03;;;;;;;7.97;94.82;97887.66;5067986;28;20285;-73
2021/11/04 00:22:44;;;;;;;6.80;6.10;;;;;;;7.89;94.25;97874.84;5065783;28;20197;-73
2021/11/04 00:25:12;;;;;;;7.57;6.78;;;;;;;7.88;95.47;97881.16;5070861;28;20280;-72
2021/11/04 00:27:39;;;;;;;7.82;6.15;;;;;;;8.09;93.66;97886.72;5061248;28;20183;-74
2021/11/04 00:30:09;;;;;;;7.35;6.63;;;;;;;8.15;93.06;97874.69;5061147;28;20215;-73
2021/11/04 00:32:36;;;;;;;6.80;6.10;;;;;;;8.03;94.19;97871.13;5070195;28;20536;-73
2021/11/04 00:35:03;;;;;;;7.28;5.57;;;;;;;8.10;92.88;97871.50;5073273;28;20194;-74
2021/11/04 00:37:30;;;;;;;6.32;5.72;;;;;;;8.18;92.71;97869.09;5068963;28;20229;-73
2021/11/04 00:39:56;;;;;;;6.43;5.28;;;;;;;8.00;93.14;97863.28;5070887;28;20610;-73
2021/11/04 00:42:23;;;;;;;7.28;5.72;;;;;;;7.86;93.56;97867.00;5068581;28;20289;-73
2021/11/04 00:44:49;;;;;;;5.53;5.03;;;;;;;7.60;96.35;97870.75;5074976;28;20295;-74
2021/11/04 00:47:18;;;;;;;6.78;6.10;;;;;;;7.40;98.81;97881.13;5059324;28;20280;-73
2021/11/04 00:49:44;;;;;;;6.90;5.70;;;;;;;7.35;99.61;97891.31;5067673;28;20620;-73
2021/11/04 00:52:11;;;;;;;7.97;6.40;;;;;;;7.34;100.00;97899.44;5073268;28;20292;-73
2021/11/04 00:54:37;;;;;;;6.75;6.05;;;;;;;7.48;99.78;97900.16;5069881;28;20229;-72
2021/11/04 00:57:04;;;;;;;7.55;6.75;;;;;;;7.49;99.66;97898.34;5071392;28;20197;-73
2021/11/04 00:59:31;;;;;;;7.78;6.93;;;;;;;7.53;100.00;97889.13;5065450;28;20624;-73
2021/11/04 01:01:58;;;;;;;7.47;6.53;;;;;;;7.77;98.27;97889.13;5074660;28;20226;-73
2021/11/04 01:04:26;;;;;;;8.68;7.00;;;;;;;7.57;98.83;97884.38;5067284;28;20208;-74
2021/11/04 01:06:52;;;;;;;7.93;6.65;;;;;;;7.58;99.29;97867.34;5074946;28;20191;-72
2021/11/04 01:09:19;;;;;;;7.60;6.88;;;;;;;7.84;98.27;97870.78;5071812;28;20643;-71
2021/11/04 01:11:46;;;;;;;8.77;6.93;;;;;;;7.88;94.73;97861.53;5064051;28;20219;-71
2021/11/04 01:14:13;;;;;;;7.28;6.40;;;;;;;7.73;95.65;97872.44;5068788;28;20230;-74
2021/11/04 01:16:39;;;;;;;6.95;6.25;;;;;;;7.63;95.06;97871.41;5069325;28;20188;-73
2021/11/04 01:19:06;;;;;;;7.93;6.60;;;;;;;7.57;95.21;97874.50;5067725;28;20200;-73
2021/11/04 01:21:34;;;;;;;7.88;6.75;;;;;;;7.62;95.26;97880.41;5070007;28;20185;-72
2021/11/04 01:24:01;;;;;;;6.82;6.07;;;;;;;7.59;94.62;97888.66;5073700;28;20197;-72
2021/11/04 01:26:27;;;;;;;6.50;5.88;;;;;;;7.70;93.48;97907.47;5074429;28;20213;-74
2021/11/04 01:28:54;;;;;;;7.10;6.10;;;;;;;7.77;93.30;97910.56;5065903;28;20204;-73
2021/11/04 01:31:21;;;;;;;7.43;5.45;;;;;;;7.61;93.98;97916.19;5066482;28;20202;-74
2021/11/04 01:33:47;;;;;;;6.28;5.35;;;;;;;7.60;94.41;97924.31;5070271;28;20197;-73
2021/11/04 01:36:14;;;;;;;7.35;5.88;;;;;;;7.41;96.22;97940.88;5066425;28;20612;-74
2021/11/04 01:38:42;;;;;;;8.07;7.18;;;;;;;7.43;98.27;97941.63;5069641;28;20217;-74
2021/11/04 01:41:08;;;;;;;9.15;8.20;;;;;;;7.31;100.00;97949.56;5065086;28;20190;-74
2021/11/04 01:43:36;;;;;;;10.10;8.57;;;;;;;7.37;100.00;97952.75;5064137;28;20193;-73
2021/11/04 01:46:03;;;;;;;9.70;8.70;;;;;;;7.26;100.00;97951.72;5072683;28;20190;-73
2021/11/04 01:48:30;;;;;;;12.10;9.23;;;;;;;7.32;100.00;97959.28;5064450;28;20548;-73
2021/11/04 01:50:57;;;;;;;13.10;9.68;;;;;;;7.43;100.00;97955.00;5071148;28;20235;-73
2021/11/04 01:53:24;;;;;;;12.38;9.95;;;;;;;7.24;100.00;97952.78;5072015;28;20189;-73
2021/11/04 01:55:52;;;;;;;15.00;10.75;;;;;;;7.16;100.00;97953.31;5070631;28;20186;-73
2021/11/04 01:58:20;;;;;;;12.90;10.38;;;;;;;7.08;100.00;97950.34;5063001;28;20276;-73
2021/11/04 02:00:46;;;;;;;13.65;10.90;;;;;;;7.01;100.00;97954.38;5071257;28;20213;-73
2021/11/04 02:03:20;;;;;;;14.52;11.15;;;;;;;7.05;100.00;97945.19;5073317;28;20196;-73
2021/11/04 02:05:53;;;;;;;12.35;9.38;;;;;;;6.98;100.00;97942.06;5070338;28;20201;-74
2021/11/04 02:08:23;;;;;;;14.25;9.07;;;;;;;6.95;100.00;97947.66;5071287;28;20232;-73
2021/11/04 02:10:55;;;;;;;13.18;10.15;;;;;;;7.04;100.00;97949.69;5069473;28;20216;-73
2021/11/04 02:13:27;;;;;;;12.57;9.20;;;;;;;7.08;100.00;97951.19;5065154;28;20189;-73
2021/11/04 02:15:59;;;;;;;11.80;9.20;;;;;;;7.07;100.00;97943.25;5068237;28;20236;-72
2021/11/04 02:18:29;;;;;;;11.43;9.60;;;;;;;7.15;100.00;97945.41;5068711;28;20196;-74
2021/11/04 02:21:10;;;;;;;13.80;10.23;;;;;;;7.15;100.00;97946.25;5066654;28;20186;-74
2021/11/04 02:23:49;;;;;;;12.30;9.98;;;;;;;7.42;100.00;97934.56;5067473;28;20182;-74
2021/11/04 02:26:18;;;;;;;13.50;10.30;;;;;;;7.21;100.00;97931.56;5069716;28;20185;-72
2021/11/04 02:28:45;;;;;;;12.70;10.07;;;;;;;7.27;100.00;97928.47;5071595;28;20272;-72
2021/11/04 02:31:12;;;;;;;15.27;9.90;;;;;;;7.22;100.00;97920.78;5059715;28;20303;-74
2021/11/04 02:33:41;;;;;;;13.18;9.93;;;;;;;7.16;100.00;97928.38;5066259;28;20196;-73
2021/11/04 02:36:08;;;;;;;12.63;10.55;;;;;;;7.19;100.00;97921.00;5068566;28;20219;-73
2021/11/04 02:38:35;;;;;;;14.20;10.88;;;;;;;7.17;100.00;97922.03;5069784;28;20193;-73
2021/11/04 02:41:05;;;;;;;13.73;10.38;;;;;;;7.19;100.00;97917.44;5071169;28;20293;-73
2021/11/04 02:43:35;;;;;;;14.48;10.98;;;;;;;7.27;100.00;97926.63;5071740;28;20189;-73
2021/11/04 02:46:03;;;;;;;16.73;11.30;;;;;;;7.37;100.00;97924.19;5063205;28;20197;-73
2021/11/04 02:48:31;;;;;;;13.40;10.55;;;;;;;7.34;100.00;97924.38;5063315;28;20664;-72
2021/11/04 02:50:58;;;;;;;13.80;10.20;;;;;;;7.30;100.00;97931.78;5065498;28;20209;-73
2021/11/04 02:53:30;;;;;;;15.07;11.88;;;;;;;7.30;100.00;97929.13;5067623;28;20197;-73
2021/11/04 02:55:58;;;;;;;14.90;11.15;;;;;;;7.31;100.00;97921.94;5070539;28;20197;-73
2021/11/04 03:01:50;;;;;;;11.57;9.80;;;;;;;7.40;100.00;97925.78;5059939;28;20673;-72
2021/11/04 03:04:18;;;;;;;12.98;10.13;;;;;;;7.30;100.00;97928.25;5063533;28;20192;-74
2021/11/04 03:06:45;;;;;;;13.93;10.02;;;;;;;7.34;100.00;97935.09;5071360;28;20558;-72
2021/11/04 03:09:13;;;;;;;14.32;12.00;;;;;;;7.33;100.00;97941.44;5071797;28;20281;-73
2021/11/04 03:11:39;;;;;;;13.48;9.60;;;;;;;7.27;100.00;97948.06;5066811;28;20219;-74
2021/11/04 03:14:06;;;;;;;14.65;10.88;;;;;;;7.55;100.00;97937.19;5071563;28;20217;-74
2021/11/04 03:16:37;;;;;;;14.63;11.45;;;;;;;7.48;100.00;97947.50;5069182;28;20197;-72
2021/11/04 03:19:08;;;;;;;14.13;10.23;;;;;;;7.51;100.00;97958.00;5067405;28;20198;-72
2021/11/04 03:21:36;;;;;;;15.38;11.35;;;;;;;7.47;100.00;97961.88;5072552;28;20645;-73
2021/11/04 03:24:04;;;;;;;14.65;10.85;;;;;;;7.41;100.00;97967.66;5066041;28;20194;-72
2021/11/04 03:26:32;;;;;;;15.55;11.98;;;;;;;7.56;100.00;97977.28;5070698;28;20818;-72
2021/11/04 03:28:59;;;;;;;15.02;11.40;;;;;;;7.55;100.00;97975.53;5070399;28;20199;-72
2021/11/04 03:31:27;;;;;;;17.92;13.15;;;;;;;7.60;100.00;97976.09;5071733;28;20292;-72
2021/11/04 03:33:55;;;;;;;16.98;12.73;;;;;;;7.40;100.00;97982.00;5068122;28;20559;-73
2021/11/04 03:36:23;;;;;;;24.60;15.25;;;;;;;7.16;100.00;97992.63;5072022;28;20182;-72
2021/11/04 03:38:50;;;;;;;23.42;15.95;;;;;;;7.21;100.00;97993.13;5070055;28;20212;-73
2021/11/04 03:41:19;;;;;;;27.25;18.80;;;;;;;7.04;100.00;98010.38;5069583;28;20284;-73
2021/11/04 03:43:47;;;;;;;30.15;19.35;;;;;;;7.03;100.00;98011.34;5065095;28;20190;-72
2021/11/04 03:46:14;;;;;;;31.42;19.17;;;;;;;7.03;100.00;98022.03;5067024;28;20185;-73
2021/11/04 03:48:42;;;;;;;28.35;19.52;;;;;;;6.97;100.00;98025.16;5067166;28;20189;-74
2021/11/04 03:51:10;;;;;;;31.00;21.17;;;;;;;6.96;100.00;98024.28;5067610;28;20583;-73
2021/11/04 03:53:39;;;;;;;33.30;20.55;;;;;;;7.02;100.00;98020.34;5061372;28;20204;-74
2021/11/04 03:56:06;;;;;;;32.35;20.33;;;;;;;7.01;100.00;98034.66;5071048;28;20193;-74
2021/11/04 03:58:37;;;;;;;36.30;22.83;;;;;;;6.93;100.00;98037.88;5070596;28;20185;-72
2021/11/04 04:01:04;;;;;;;34.47;21.42;;;;;;;6.94;100.00;98042.25;5064035;28;20193;-72
2021/11/04 04:03:31;;;;;;;39.75;24.10;;;;;;;6.88;100.00;98043.53;5063236;28;20191;-74
2021/11/04 04:06:01;;;;;;;38.47;21.83;;;;;;;6.86;100.00;98045.47;5071824;28;20200;-74
2021/11/04 04:08:29;;;;;;;42.92;23.90;;;;;;;6.77;100.00;98051.44;5074954;28;20228;-74
2021/11/04 04:10:58;;;;;;;40.28;24.35;;;;;;;7.02;100.00;98052.44;5074657;28;20189;-74
2021/11/04 04:13:24;;;;;;;40.20;23.98;;;;;;;6.81;100.00;98055.63;5073249;28;20534;-73
2021/11/04 04:15:51;;;;;;;42.75;25.80;;;;;;;6.78;100.00;98061.16;5068311;28;20221;-74
2021/11/04 04:18:18;;;;;;;41.20;25.63;;;;;;;6.82;100.00;98059.13;5069819;28;20658;-73
2021/11/04 04:20:46;;;;;;;41.92;25.30;;;;;;;6.93;100.00;98061.09;5072012;28;20190;-74
2021/11/04 04:23:13;;;;;;;50.15;26.85;;;;;;;6.96;100.00;98066.22;5071479;28;20592;-74
2021/11/04 04:25:39;;;;;;;48.28;26.65;;;;;;;6.91;100.00;98065.69;5073715;28;20193;-74
2021/11/04 04:28:08;;;;;;;42.42;25.60;;;;;;;6.95;100.00;98068.06;5072474;28;20635;-74
2021/11/04 04:30:34;;;;;;;41.15;23.73;;;;;;;6.89;100.00;98071.13;5065454;28;20630;-74
2021/11/04 04:33:01;;;;;;;48.78;26.15;;;;;;;7.01;100.00;98069.44;5071299;28;20205;-73
2021/11/04 04:35:28;;;;;;;43.70;24.10;;;;;;;6.96;100.00;98071.59;5062874;28;20522;-73
2021/11/04 04:37:54;;;;;;;42.20;25.13;;;;;;;7.04;100.00;98072.78;5068709;28;20193;-73
2021/11/04 04:40:21;;;;;;;43.65;24.90;;;;;;;6.95;100.00;98072.56;5069884;28;20189;-74
2021/11/04 04:42:48;;;;;;;43.00;24.55;;;;;;;7.00;100.00;98071.28;5072699;28;20182;-74
2021/11/04 04:45:17;;;;;;;38.95;23.58;;;;;;;7.06;100.00;98073.53;5073483;28;20208;-74
2021/11/04 04:47:44;;;;;;;42.42;23.42;;;;;;;7.14;100.00;98070.31;5074008;28;20192;-73
2021/11/04 04:50:11;;;;;;;41.20;22.67;;;;;;;7.14;100.00;98064.97;5068646;28;20201;-73
2021/11/04 04:52:39;;;;;;;37.90;21.52;;;;;;;7.05;100.00;98057.56;5071932;28;20209;-74
2021/11/04 04:55:06;;;;;;;33.63;19.90;;;;;;;6.96;100.00;98063.56;5067032;28;20623;-72
2021/11/04 04:57:33;;;;;;;36.03;20.10;;;;;;;6.98;100.00;98067.00;5074732;28;20189;-74
2021/11/04 04:59:59;;;;;;;35.03;21.70;;;;;;;7.05;100.00;98070.97;5067629;28;20192;-72
2021/11/04 05:02:28;;;;;;;34.30;20.85;;;;;;;7.05;100.00;98062.94;5073571;28;20195;-72
2021/11/04 05:04:55;;;;;;;36.13;21.50;;;;;;;6.98;100.00;98064.31;5070587;28;20185;-73
2021/11/04 05:07:22;;;;;;;34.05;20.67;;;;;;;7.00;100.00;98068.59;5067865;28;20186;-73
2021/11/04 05:09:48;;;;;;;33.83;21.88;;;;;;;7.10;100.00;98069.69;5069151;28;20208;-74
2021/11/04 05:12:15;;;;;;;31.73;20.13;;;;;;;6.98;100.00;98075.03;5074268;28;20197;-73
2021/11/04 05:14:42;;;;;;;38.47;21.98;;;;;;;7.06;100.00;98075.38;5072524;28;20224;-73
2021/11/04 05:17:08;;;;;;;35.75;20.58;;;;;;;7.06;100.00;98067.34;5072323;28;20198;-73
2021/11/04 05:19:36;;;;;;;36.08;21.58;;;;;;;7.02;100.00;98074.69;5073423;28;20205;-73
2021/11/04 05:22:03;;;;;;;34.13;20.60;;;;;;;6.98;100.00;98077.69;5071627;28;20186;-73
2021/11/04 05:24:34;;;;;;;31.27;19.90;;;;;;;7.10;100.00;98076.88;5071239;28;20397;-73
2021/11/04 05:27:00;;;;;;;29.60;18.65;;;;;;;7.01;100.00;98091.75;5075051;28;20262;-73
2021/11/04 05:29:27;;;;;;;29.55;19.65;;;;;;;7.02;100.00;98093.44;5073678;28;20272;-73
2021/11/04 05:31:54;;;;;;;27.58;17.60;;;;;;;6.91;100.00;98087.94;5071603;28;20216;-73
2021/11/04 05:34:20;;;;;;;32.80;19.33;;;;;;;6.82;100.00;98089.41;5064002;28;20197;-73
2021/11/04 05:36:48;;;;;;;32.33;20.58;;;;;;;6.83;100.00;98091.16;5067839;28;20272;-72
2021/11/04 05:39:15;;;;;;;29.58;17.75;;;;;;;6.91;100.00;98092.44;5065649;28;20208;-73
2021/11/04 05:41:41;;;;;;;35.63;19.85;;;;;;;6.89;100.00;98100.56;5070026;28;20189;-74
2021/11/04 05:44:08;;;;;;;33.03;20.38;;;;;;;6.95;100.00;98102.00;5072942;28;20192;-74
2021/11/04 05:46:35;;;;;;;35.88;21.83;;;;;;;6.97;100.00;98105.44;5069086;28;20615;-73
2021/11/04 05:49:02;;;;;;;33.55;20.90;;;;;;;6.84;100.00;98113.41;5069761;28;20636;-73
2021/11/04 05:51:29;;;;;;;33.85;19.90;;;;;;;6.90;100.00;98113.00;5068808;28;20193;-74
2021/11/04 05:53:57;;;;;;;34.70;21.23;;;;;;;6.89;100.00;98122.81;5072997;28;20200;-75
2021/11/04 05:56:23;;;;;;;32.35;20.65;;;;;;;6.96;100.00;98123.28;5072700;28;20204;-72
2021/11/04 05:58:50;;;;;;;32.78;19.48;;;;;;;6.91;100.00;98127.22;5070723;28;20185;-74
2021/11/04 06:01:16;;;;;;;36.20;20.50;;;;;;;6.93;100.00;98123.50;5068008;28;20368;-74
2021/11/04 06:03:43;;;;;;;31.98;19.80;;;;;;;6.97;100.00;98133.03;5069299;28;20189;-73
2021/11/04 06:06:09;;;;;;;37.03;20.58;;;;;;;6.90;100.00;98137.09;5072087;28;20303;-74
2021/11/04 06:08:36;;;;;;;32.20;20.70;;;;;;;7.01;100.00;98131.00;5068028;28;20186;-74
2021/11/04 06:11:04;;;;;;;40.83;22.05;;;;;;;7.01;100.00;98142.59;5073410;28;20189;-73
2021/11/04 06:13:31;;;;;;;35.55;21.83;;;;;;;6.98;100.00;98144.59;5073153;28;20637;-73
2021/11/04 06:15:57;;;;;;;33.72;20.35;;;;;;;6.96;100.00;98139.31;5071892;28;20227;-74
2021/11/04 06:18:24;;;;;;;41.22;20.52;;;;;;;7.02;100.00;98155.00;5071525;28;20232;-73
2021/11/04 06:20:50;;;;;;;40.53;21.02;;;;;;;7.13;100.00;98158.78;5071814;28;20197;-72
2021/11/04 06:23:17;;;;;;;33.08;20.65;;;;;;;7.06;100.00;98161.00;5072117;28;20216;-73
2021/11/04 06:25:44;;;;;;;37.67;20.92;;;;;;;6.94;100.00;98167.16;5072147;28;20197;-75
2021/11/04 06:28:12;;;;;;;34.33;21.02;;;;;;;6.99;100.00;98173.94;5071813;28;20631;-73
2021/11/04 06:30:38;;;;;;;32.97;20.10;;;;;;;7.04;100.00;98181.66;5072810;28;20359;-74
2021/11/04 06:33:06;;;;;;;36.40;21.73;;;;;;;6.96;100.00;98182.16;5070489;28;20219;-74
2021/11/04 06:35:33;;;;;;;39.63;23.27;;;;;;;6.99;100.00;98176.63;5069828;28;20280;-75
2021/11/04 06:37:59;;;;;;;39.03;22.38;;;;;;;7.02;100.00;98189.78;5069978;28;20198;-73
2021/11/04 06:40:27;;;;;;;36.17;22.08;;;;;;;7.14;100.00;98190.78;5070757;28;20251;-75
2021/11/04 06:42:54;;;;;;;39.92;22.27;;;;;;;7.23;100.00;98192.84;5070253;28;20636;-74
2021/11/04 06:45:22;;;;;;;38.70;20.80;;;;;;;7.22;100.00;98188.47;5068807;28;20197;-75
2021/11/04 06:47:51;;;;;;;41.22;22.35;;;;;;;7.05;100.00;98197.59;5068704;28;20220;-72
2021/11/04 06:50:20;;;;;;;35.83;21.75;;;;;;;7.13;100.00;98199.78;5070079;28;20643;-74
2021/11/04 06:52:50;;;;;;;31.52;20.80;;;;;;;7.13;100.00;98207.81;5069150;28;20217;-76
2021/11/04 06:55:17;;;;;;;39.45;22.85;;;;;;;7.15;100.00;98205.91;5070634;28;20277;-74
2021/11/04 06:57:45;;;;;;;38.92;22.00;;;;;;;7.28;100.00;98208.59;5068437;28;20193;-74
2021/11/04 07:00:13;;;;;;;36.50;19.45;;;;;;;7.13;100.00;98206.97;5071128;28;20201;-76
2021/11/04 07:02:43;;;;;;;37.13;22.15;;;;;;;7.25;100.00;98220.38;5070356;28;20526;-74
2021/11/04 07:05:13;;;;;;;35.88;22.02;;;;;;;7.14;100.00;98222.91;5065860;28;20210;-74
2021/11/04 07:07:46;;;;;;;37.80;22.85;;;;;;;7.23;100.00;98224.09;5071120;28;20554;-74
2021/11/04 07:10:14;;;;;;;34.47;21.00;;;;;;;7.17;100.00;98227.19;5069977;28;20197;-74
2021/11/04 07:12:45;;;;;;;34.38;21.63;;;;;;;7.08;100.00;98223.31;5070768;28;20655;-74
2021/11/04 07:15:11;;;;;;;40.92;23.52;;;;;;;7.08;100.00;98234.03;5070802;28;20313;-74
2021/11/04 07:17:42;;;;;;;33.22;21.40;;;;;;;7.11;100.00;98231.13;5070412;28;20494;-73
2021/11/04 07:20:10;;;;;;;33.42;22.60;;;;;;;7.20;100.00;98235.03;5070941;28;20189;-75
2021/11/04 07:22:40;;;;;;;41.50;24.50;;;;;;;7.31;100.00;98238.72;5071108;28;20505;-74
2021/11/04 07:25:10;;;;;;;34.08;20.45;;;;;;;7.35;100.00;98250.09;5071152;28;20326;-75
2021/11/04 07:27:53;;;;;;;35.90;20.17;;;;;;;7.21;100.00;98251.00;5070703;28;20317;-74
2021/11/04 07:30:20;;;;;;;37.30;21.92;;;;;;;7.49;100.00;98258.03;5069388;28;20197;-75
2021/11/04 07:32:51;;;;;;;33.67;21.30;;;;;;;7.40;100.00;98260.50;5070830;28;20205;-73
2021/11/04 07:35:20;;;;;;;31.63;20.30;;;;;;;7.31;100.00;98265.47;5071150;28;20193;-75
2021/11/04 07:37:47;;;;;;;37.72;22.30;;;;;;;7.41;100.00;98264.88;5070953;28;20191;-75
2021/11/04 07:40:15;;;;;;;33.13;21.13;;;;;;;7.57;100.00;98272.75;5069939;28;20643;-73
2021/11/04 07:42:43;;;;;;;34.65;21.02;;;;;;;7.57;99.87;98276.28;5070295;28;20268;-75
2021/11/04 07:45:10;;;;;;;31.23;19.48;;;;;;;7.46;99.00;98276.13;5071047;28;20615;-73
2021/11/04 07:47:37;;;;;;;28.80;18.98;;;;;;;7.54;100.00;98276.47;5071090;28;20280;-74
2021/11/04 07:50:08;;;;;;;34.38;21.02;;;;;;;7.46;99.87;98278.81;5066009;28;20210;-73
2021/11/04 07:52:35;;;;;;;34.85;20.73;;;;;;;7.47;99.07;98294.78;5070536;28;20212;-74
2021/11/04 07:55:02;;;;;;;28.95;17.75;;;;;;;7.34;97.74;98291.19;5068761;28;20192;-75
2021/11/04 07:57:29;;;;;;;28.15;17.63;;;;;;;7.41;97.46;98299.69;5063311;28;20198;-74
2021/11/04 07:59:56;;;;;;;28.85;18.88;;;;;;;7.40;97.75;98304.19;5058079;28;20285;-74
2021/11/04 08:02:22;;;;;;;26.70;17.95;;;;;;;7.45;97.18;98311.91;5069800;28;20200;-75
2021/11/04 08:04:49;;;;;;;32.45;20.25;;;;;;;7.48;97.47;98309.03;5064551;28;20198;-75
2021/11/04 08:07:17;;;;;;;29.38;19.80;;;;;;;7.48;98.18;98317.94;5065535;28;20186;-74
2021/11/04 08:09:44;;;;;;;29.38;19.67;;;;;;;7.47;97.77;98310.00;5070041;28;20288;-75
2021/11/04 08:12:11;;;;;;;30.38;20.25;;;;;;;7.66;96.87;98310.47;5057993;28;20189;-75
2021/11/04 08:14:37;;;;;;;31.52;20.23;;;;;;;7.60;97.04;98310.91;5064693;28;20230;-74
2021/11/04 08:17:04;;;;;;;29.80;18.38;;;;;;;7.51;97.44;98320.41;5071010;28;20213;-75
2021/11/04 08:19:33;;;;;;;31.05;19.40;;;;;;;7.58;96.44;98330.72;5071314;28;20190;-74
2021/11/04 08:21:59;;;;;;;29.10;19.83;;;;;;;7.65;96.05;98335.56;5071417;28;20281;-74
2021/11/04 08:24:27;;;;;;;28.90;19.98;;;;;;;7.67;96.69;98340.81;5071111;28;20198;-75
2021/11/04 08:26:54;;;;;;;31.95;20.17;;;;;;;7.74;96.17;98336.78;5071244;28;20190;-73
2021/11/04 08:29:21;;;;;;;33.08;18.15;;;;;;;7.67;96.09;98336.31;5056813;28;20245;-73
2021/11/04 08:31:47;;;;;;;30.23;18.60;;;;;;;7.58;96.57;98344.13;5065983;28;20208;-74
2021/11/04 08:34:14;;;;;;;32.42;20.80;;;;;;;7.78;97.41;98340.97;5050667;28;20204;-74
2021/11/04 08:36:40;;;;;;;31.83;19.58;;;;;;;7.78;96.45;98350.81;5055616;28;20197;-74
2021/11/04 08:39:07;;;;;;;34.75;21.27;;;;;;;7.94;96.93;98355.06;5060245;28;20241;-74
2021/11/04 08:41:35;;;;;;;32.40;22.17;;;;;;;8.02;96.46;98357.22;5059741;28;20282;-75
2021/11/04 08:44:02;;;;;;;30.88;19.33;;;;;;;7.98;96.02;98354.84;5050251;28;20534;-75
2021/11/04 08:46:29;;;;;;;34.13;21.23;;;;;;;7.99;96.61;98362.78;5051276;28;20536;-74
2021/11/04 08:48:56;;;;;;;30.67;21.40;;;;;;;7.92;97.45;98373.06;5050818;28;20275;-74
2021/11/04 08:51:23;;;;;;;30.58;20.23;;;;;;;7.90;96.53;98376.81;5062025;28;20205;-75
2021/11/04 08:53:49;;;;;;;30.52;20.13;;;;;;;7.93;96.41;98372.09;5068463;28;20724;-75
2021/11/04 08:56:16;;;;;;;31.10;19.95;;;;;;;7.91;96.04;98384.75;5054936;28;20645;-75
2021/11/04 08:58:44;;;;;;;30.60;19.60;;;;;;;7.91;96.57;98386.56;5063416;28;20189;-73
2021/11/04 09:01:12;;;;;;;29.98;20.30;;;;;;;8.08;95.38;98385.44;5070674;28;20546;-74
2021/11/04 09:03:39;;;;;;;34.78;21.98;;;;;;;8.20;95.06;98391.78;5073036;28;20194;-74
2021/11/04 09:06:06;;;;;;;30.45;20.90;;;;;;;8.08;93.91;98397.00;5075003;28;20213;-74
2021/11/04 09:08:32;;;;;;;30.40;21.67;;;;;;;8.13;95.31;98394.03;5072494;28;20221;-73
2021/11/04 09:10:59;;;;;;;30.13;19.92;;;;;;;8.09;94.00;98406.75;5074105;28;20198;-75
2021/11/04 09:13:26;;;;;;;31.05;21.05;;;;;;;8.30;93.46;98406.31;5074185;28;20249;-75
2021/11/04 09:15:54;;;;;;;26.50;19.45;;;;;;;8.47;92.81;98406.03;5074009;28;20643;-75
2021/11/04 09:18:21;;;;;;;29.23;19.92;;;;;;;8.27;92.11;98406.50;5061272;28;20205;-75
2021/11/04 09:20:48;;;;;;;28.30;19.33;;;;;;;8.11;92.75;98418.25;5072186;28;20194;-74
2021/11/04 09:23:15;;;;;;;30.35;19.30;;;;;;;8.15;93.93;98421.59;5073789;28;20658;-73
2021/11/04 09:25:42;;;;;;;29.23;20.23;;;;;;;8.20;93.29;98413.25;5072090;28;20290;-75
2021/11/04 09:28:08;;;;;;;27.17;18.45;;;;;;;7.95;95.14;98425.59;5073277;28;20202;-73
2021/11/04 09:30:35;;;;;;;26.75;18.67;;;;;;;7.90;94.69;98423.22;5073665;28;20696;-74
2021/11/04 09:33:03;;;;;;;32.55;20.75;;;;;;;8.10;93.44;98424.59;5073228;28;20229;-73
2021/11/04 09:35:30;;;;;;;27.83;18.25;;;;;;;8.28;91.89;98435.06;5073761;28;20193;-74
2021/11/04 09:37:57;;;;;;;25.25;18.58;;;;;;;8.22;92.07;98436.31;5073180;28;20209;-74
2021/11/04 09:40:23;;;;;;;27.58;18.20;;;;;;;8.38;91.18;98441.50;5073832;28;20183;-74
2021/11/04 09:42:51;;;;;;;24.33;17.85;;;;;;;8.40;91.18;98436.91;5073230;28;20194;-73
2021/11/04 09:45:18;;;;;;;27.80;18.88;;;;;;;8.20;91.92;98432.88;5073820;28;20709;-75
2021/11/04 09:47:44;;;;;;;25.23;16.77;;;;;;;8.14;92.64;98436.84;5073830;28;20586;-74
2021/11/04 09:50:15;;;;;;;25.83;17.80;;;;;;;8.31;92.65;98442.88;5072824;28;20197;-73
2021/11/04 09:52:43;;;;;;;29.13;17.75;;;;;;;8.17;92.79;98451.84;5073087;28;20303;-75
2021/11/04 09:55:13;;;;;;;27.40;18.60;;;;;;;8.35;92.48;98452.44;5072921;28;20197;-74
2021/11/04 09:57:41;;;;;;;26.33;16.52;;;;;;;8.35;90.72;98447.94;5073078;28;20191;-75
2021/11/04 10:00:09;;;;;;;22.67;16.80;;;;;;;8.47;89.79;98448.94;5067745;28;20202;-75
2021/11/04 10:02:38;;;;;;;24.88;16.98;;;;;;;8.58;89.02;98453.59;5072688;28;20625;-75
2021/11/04 10:05:07;;;;;;;24.20;16.67;;;;;;;8.59;88.61;98457.97;5072803;28;20217;-75
2021/11/04 10:07:45;;;;;;;22.70;15.80;;;;;;;8.62;87.73;98468.53;5072901;28;20198;-75
2021/11/04 10:10:12;;;;;;;24.13;15.80;;;;;;;8.37;88.89;98471.97;5071896;28;20195;-75
2021/11/04 10:12:56;;;;;;;24.75;16.48;;;;;;;8.44;89.45;98469.78;5072784;28;20603;-73
2021/11/04 10:15:23;;;;;;;23.50;15.93;;;;;;;8.62;88.29;98478.41;5070629;28;20231;-74
2021/11/04 10:17:50;;;;;;;23.35;16.30;;;;;;;8.65;87.53;98478.19;5052658;28;20192;-73
2021/11/04 10:20:18;;;;;;;26.05;18.48;;;;;;;8.62;88.12;98468.53;5052635;28;20657;-75
2021/11/04 10:22:59;;;;;;;21.63;16.50;;;;;;;8.67;88.43;98474.44;5053005;28;20272;-74
2021/11/04 10:25:27;;;;;;;23.02;16.20;;;;;;;8.79;86.60;98478.09;5052452;28;20186;-74
2021/11/04 10:27:53;;;;;;;20.15;13.98;;;;;;;8.65;86.99;98478.19;5066849;28;20195;-74
2021/11/04 10:30:36;;;;;;;21.10;13.93;;;;;;;8.38;88.11;98479.03;5072898;28;20275;-75
2021/11/04 10:33:21;;;;;;;22.42;14.68;;;;;;;8.42;88.91;98477.91;5072748;28;20643;-73
2021/11/04 10:35:56;;;;;;;22.13;14.40;;;;;;;8.41;89.06;98492.31;5057947;28;20194;-75
2021/11/04 10:38:33;;;;;;;20.95;14.52;;;;;;;8.28;88.91;98486.84;5052684;28;20612;-74
2021/11/04 10:41:00;;;;;;;22.85;16.15;;;;;;;8.46;88.80;98500.91;5052369;28;20238;-73
2021/11/04 10:43:27;;;;;;;21.27;14.77;;;;;;;8.57;86.47;98492.13;5053694;28;20191;-74
2021/11/04 10:46:04;;;;;;;20.75;14.35;;;;;;;8.63;85.94;98486.31;5052292;28;20192;-74
2021/11/04 10:48:31;;;;;;;21.15;15.00;;;;;;;8.69;85.41;98488.59;5052697;28;20537;-75
2021/11/04 10:50:58;;;;;;;22.63;14.15;;;;;;;9.04;82.96;98485.31;5059490;28;20199;-74
2021/11/04 10:53:27;;;;;;;18.95;12.93;;;;;;;9.08;81.73;98505.63;5072193;28;20302;-74
2021/11/04 10:55:55;;;;;;;19.77;13.77;;;;;;;9.42;80.54;98494.34;5072519;28;20192;-75
2021/11/04 10:58:30;;;;;;;25.83;14.75;;;;;;;9.21;81.30;98505.63;5071987;28;20214;-74
2021/11/04 11:00:59;;;;;;;21.02;13.20;;;;;;;9.07;81.97;98493.16;5055535;28;20196;-73
2021/11/04 11:03:27;;;;;;;21.73;14.00;;;;;;;9.36;81.01;98504.56;5052378;28;20523;-74
2021/11/04 11:05:57;;;;;;;24.17;14.27;;;;;;;9.14;81.43;98501.66;5052932;28;20220;-75
2021/11/04 11:08:26;;;;;;;16.48;13.50;;;;;;;9.10;81.99;98502.84;5051894;28;20188;-75
2021/11/04 11:10:53;;;;;;;17.42;13.50;;;;;;;9.14;81.41;98505.19;5051906;28;20196;-74
2021/11/04 11:13:20;;;;;;;17.13;12.93;;;;;;;9.28;80.53;98508.75;5056321;28;20730;-75
2021/11/04 11:15:51;;;;;;;18.50;13.60;;;;;;;9.34;80.30;98517.22;5063565;28;20297;-73
2021/11/04 11:18:22;;;;;;;17.88;12.93;;;;;;;9.25;80.66;98514.31;5070391;28;20618;-75
2021/11/04 11:20:49;;;;;;;18.67;12.68;;;;;;;9.28;80.59;98514.97;5068836;28;20546;-74
2021/11/04 11:23:18;;;;;;;25.15;12.63;;;;;;;9.40;80.22;98518.63;5063053;28;20195;-74
2021/11/04 11:25:49;;;;;;;18.50;13.65;;;;;;;9.41;80.03;98523.03;5059217;28;20275;-75
2021/11/04 11:28:16;;;;;;;17.05;13.27;;;;;;;9.67;78.21;98523.00;5070859;28;20187;-73
2021/11/04 11:31:02;;;;;;;18.17;13.35;;;;;;;9.53;79.00;98529.38;5066593;28;20594;-74